Flugplatz Kirn (UL)

Hier findest Du alle Informationen zum Flugplatz Kirn (UL).

Informationen für Piloten zum Flugplatz Kirn

Hier findest Du alle relevanten Informationen, die Du als Pilot benötigst, um Kirn anzufliegen.

Flugplatz: Kirn ICAO-Code: UL Flugplatz
Frequenz Turm: 118.205 Mhz GAFOR Gebiet: -
Frequenz Ground: 118.205 Mhz Mogas: ja
Platzrunde: O 2000 ft Landegebühr: 0 €
Platzhöhe: 1440 ft Sunrise: 03:49 Uhr UTC
Pisten: 14/32 - 600 m x 40 m, GRAS Sunset: 19:23 Uhr UTC

Flugwetter am Flugplatz Kirn

Die METAR Information stammen aus EDFH (26.53 km entfernt).

METAR Code:
2024/07/22 18:20
EDFH 221820Z 26007KT 230V290 CAVOK 20/11 Q1019

Flugschulen am Flugplatz Kirn

Am Flugplatz Kirn gibt es leider keine Flugschule.

Benachbarte Flugplätze und Flugschulen

Es gibt 21 weitere Flugplätze in einem Umkreis von 50 km um den Flugplatz Kirn.

Jetzt anmelden

Passwort vergessen

Umfrage Archiv

Wie häufig haltet Ihr die Halbkreisflugregel ein?

Eher häufig!
36.6 %
Immer!
30.5 %
Hin und wieder!
16.8 %
Nie!
9.3 %
Eher selten!
6.8 %
Stimmen: 279 | Diskussion
Anzeige: Roland Aircraft
Statistik Alle Mitglieder

Aktuell sind 20 Besucher online.

Anzeige: EasyVFR